createdAt,value
2018-09-06T00:01:37.635Z,83.95
2018-09-06T00:04:06.862Z,84.39
2018-09-06T00:06:35.510Z,84.87
2018-09-06T00:09:04.955Z,85.11
2018-09-06T00:11:33.462Z,84.83
2018-09-06T00:14:02.998Z,85.15
2018-09-06T00:16:31.548Z,85.86
2018-09-06T00:19:00.089Z,85.92
2018-09-06T00:21:28.601Z,85.86
2018-09-06T00:23:57.137Z,85.07
2018-09-06T00:26:25.742Z,85.32
2018-09-06T00:28:54.533Z,85.51
2018-09-06T00:31:22.949Z,85.30
2018-09-06T00:33:51.888Z,86.37
2018-09-06T00:36:20.472Z,85.61
2018-09-06T00:38:49.013Z,86.16
2018-09-06T00:41:17.661Z,85.98
2018-09-06T00:43:46.077Z,86.28
2018-09-06T00:46:14.888Z,85.86
2018-09-06T00:48:43.810Z,85.86
2018-09-06T00:51:12.437Z,85.72
2018-09-06T00:53:41.540Z,85.66
2018-09-06T00:56:10.705Z,84.59
2018-09-06T00:58:39.156Z,85.39
2018-09-06T01:01:11.208Z,85.59
2018-09-06T01:03:39.721Z,85.03
2018-09-06T01:06:08.173Z,85.68
2018-09-06T01:08:36.736Z,84.73
2018-09-06T01:11:05.288Z,84.69
2018-09-06T01:13:33.805Z,85.60
2018-09-06T01:16:02.444Z,85.63
2018-09-06T01:18:30.973Z,85.03
2018-09-06T01:20:59.452Z,85.34
2018-09-06T01:23:28.051Z,84.91
2018-09-06T01:25:57.613Z,84.67
2018-09-06T01:28:26.286Z,84.79
2018-09-06T01:30:54.899Z,84.29
2018-09-06T01:33:23.537Z,85.79
2018-09-06T01:35:57.324Z,86.23
2018-09-06T01:38:25.753Z,86.19
2018-09-06T01:40:54.197Z,85.26
2018-09-06T01:43:23.141Z,86.53
2018-09-06T01:45:52.797Z,86.40
2018-09-06T01:48:21.505Z,86.26
2018-09-06T01:50:50.730Z,86.53
2018-09-06T01:53:19.324Z,86.92
2018-09-06T01:55:49.138Z,86.73
2018-09-06T01:58:17.661Z,86.57
2018-09-06T02:00:46.957Z,85.75
2018-09-06T02:03:15.475Z,86.47
2018-09-06T02:05:43.888Z,86.14
2018-09-06T02:08:12.323Z,86.20
2018-09-06T02:10:41.465Z,85.62
2018-09-06T02:13:09.896Z,86.59
2018-09-06T02:15:38.395Z,86.04
2018-09-06T02:18:07.582Z,86.14
2018-09-06T02:20:36.072Z,86.69
2018-09-06T02:23:04.556Z,85.95
2018-09-06T02:25:33.035Z,86.94
2018-09-06T02:28:02.088Z,87.23
2018-09-06T02:30:30.657Z,86.58
2018-09-06T02:32:59.418Z,86.79
2018-09-06T02:35:28.494Z,87.13
2018-09-06T02:37:57.050Z,86.71
2018-09-06T02:40:30.668Z,87.25
2018-09-06T02:42:59.142Z,87.24
2018-09-06T02:45:27.665Z,87.32
2018-09-06T02:47:57.059Z,86.34
2018-09-06T02:50:33.342Z,86.53
2018-09-06T02:53:01.868Z,86.86
2018-09-06T02:55:30.804Z,86.66
2018-09-06T02:58:00.056Z,87.10
2018-09-06T03:00:29.901Z,87.12
2018-09-06T03:02:58.465Z,87.19
2018-09-06T03:05:27.612Z,87.16
2018-09-06T03:07:58.194Z,87.77
2018-09-06T03:10:37.148Z,87.85
2018-09-06T03:13:06.769Z,88.56
2018-09-06T03:15:36.207Z,88.26
2018-09-06T03:18:04.802Z,88.99
2018-09-06T03:20:33.254Z,89.10
2018-09-06T03:23:03.007Z,89.05
2018-09-06T03:25:32.212Z,88.04
2018-09-06T03:28:01.260Z,87.93
2018-09-06T03:30:29.789Z,88.89
2018-09-06T03:32:58.465Z,88.74
2018-09-06T03:35:27.141Z,88.82
2018-09-06T03:37:55.605Z,87.77
2018-09-06T03:40:24.033Z,87.77
2018-09-06T03:42:52.532Z,87.77
2018-09-06T03:45:21.217Z,87.45
2018-09-06T03:47:50.536Z,88.34
2018-09-06T03:50:19.229Z,88.01
2018-09-06T03:52:47.789Z,88.27
2018-09-06T03:55:16.271Z,88.24
2018-09-06T03:57:45.003Z,88.56
2018-09-06T04:00:13.483Z,88.35
2018-09-06T04:02:41.995Z,88.11
2018-09-06T04:05:10.437Z,87.95
2018-09-06T04:07:39.012Z,87.98
2018-09-06T04:10:07.705Z,88.10
2018-09-06T04:12:36.168Z,87.71
2018-09-06T04:15:04.930Z,87.96
2018-09-06T04:17:33.399Z,88.13
2018-09-06T04:20:02.371Z,87.69
2018-09-06T04:22:30.861Z,87.73
2018-09-06T04:24:59.699Z,88.02
2018-09-06T04:28:37.784Z,88.39
2018-09-06T04:31:06.517Z,87.76
2018-09-06T04:33:35.780Z,88.25
2018-09-06T04:36:04.852Z,87.57
2018-09-06T04:38:33.301Z,88.34
2018-09-06T04:41:02.355Z,88.32
2018-09-06T04:43:31.120Z,88.37
2018-09-06T04:45:59.949Z,87.78
2018-09-06T04:48:28.485Z,88.33
2018-09-06T04:50:57.088Z,87.86
2018-09-06T04:53:25.786Z,87.84
2018-09-06T04:55:54.208Z,88.25
2018-09-06T04:58:23.414Z,89.08
2018-09-06T05:00:52.240Z,88.56
2018-09-06T05:03:21.523Z,88.38
2018-09-06T05:05:50.057Z,88.20
2018-09-06T05:08:19.055Z,87.89
2018-09-06T05:10:47.637Z,88.61
2018-09-06T05:13:16.097Z,88.98
2018-09-06T05:15:44.826Z,88.74
2018-09-06T05:18:13.527Z,88.65
2018-09-06T05:20:42.006Z,88.53
2018-09-06T05:23:10.540Z,88.58
2018-09-06T05:25:38.990Z,88.42
2018-09-06T05:28:07.504Z,88.21
2018-09-06T05:30:36.228Z,88.79
2018-09-06T05:33:04.793Z,89.36
2018-09-06T05:35:33.257Z,88.42
2018-09-06T05:38:01.852Z,88.60
2018-09-06T05:40:30.341Z,88.57
2018-09-06T05:42:58.907Z,88.41
2018-09-06T05:45:27.615Z,88.29
2018-09-06T05:47:57.736Z,88.37
2018-09-06T05:50:27.449Z,88.83
2018-09-06T05:52:56.051Z,88.68
2018-09-06T05:55:24.693Z,89.42
2018-09-06T05:57:53.992Z,88.56
2018-09-06T06:00:28.061Z,88.33
2018-09-06T06:02:58.725Z,89.40
2018-09-06T06:05:27.924Z,89.91
2018-09-06T06:08:07.797Z,89.76
2018-09-06T06:10:36.411Z,88.97
2018-09-06T06:13:04.928Z,89.30
2018-09-06T06:15:33.821Z,89.16
2018-09-06T06:18:02.846Z,89.43
2018-09-06T06:20:31.303Z,89.69
2018-09-06T06:22:59.766Z,90.06
2018-09-06T06:25:28.230Z,89.34
2018-09-06T06:27:56.779Z,89.03
2018-09-06T06:30:26.315Z,89.32
2018-09-06T06:32:55.001Z,89.10
2018-09-06T06:35:23.979Z,89.89
2018-09-06T06:37:52.470Z,89.10
2018-09-06T06:40:21.367Z,89.50
2018-09-06T06:42:50.056Z,90.06
2018-09-06T06:45:18.623Z,89.09
2018-09-06T06:47:47.647Z,89.16
2018-09-06T06:50:16.672Z,88.89
2018-09-06T06:52:45.456Z,88.65
2018-09-06T06:55:14.681Z,89.12
2018-09-06T06:57:43.120Z,89.65
2018-09-06T07:00:11.865Z,89.38
2018-09-06T07:02:40.330Z,89.22
2018-09-06T07:05:09.095Z,89.00
2018-09-06T07:07:37.993Z,89.40
2018-09-06T07:10:07.156Z,88.58
2018-09-06T07:12:35.818Z,88.88
2018-09-06T07:15:04.542Z,89.51
2018-09-06T07:17:33.278Z,89.14
2018-09-06T07:20:02.576Z,88.93
2018-09-06T07:22:31.062Z,88.32
2018-09-06T07:24:59.669Z,89.03
2018-09-06T07:27:28.505Z,88.34
2018-09-06T07:29:57.278Z,88.48
2018-09-06T07:32:25.810Z,89.06
2018-09-06T07:34:54.237Z,88.63
2018-09-06T07:37:22.830Z,89.23
2018-09-06T07:39:51.422Z,88.77
2018-09-06T07:42:20.155Z,89.43
2018-09-06T07:44:48.605Z,89.08
2018-09-06T07:47:17.136Z,88.72
2018-09-06T07:49:46.421Z,88.63
2018-09-06T07:52:15.035Z,87.52
2018-09-06T07:54:44.210Z,88.24
2018-09-06T07:57:12.775Z,88.18
2018-09-06T07:59:41.564Z,88.35
2018-09-06T08:02:10.072Z,87.69
2018-09-06T08:04:38.756Z,88.11
2018-09-06T08:07:07.489Z,87.87
2018-09-06T08:09:36.237Z,88.44
2018-09-06T08:12:05.453Z,87.97
2018-09-06T08:14:34.108Z,87.77
2018-09-06T08:19:40.478Z,87.10
2018-09-06T08:22:09.025Z,86.06
2018-09-06T08:24:38.657Z,86.90
2018-09-06T08:27:07.856Z,87.46
2018-09-06T08:29:39.118Z,88.24
2018-09-06T08:32:07.845Z,87.85
2018-09-06T08:34:36.590Z,87.82
2018-09-06T08:37:05.411Z,87.58
2018-09-06T08:39:34.037Z,88.18
2018-09-06T08:42:02.796Z,88.35
2018-09-06T08:44:31.466Z,87.86
2018-09-06T08:47:00.596Z,88.52
2018-09-06T08:49:29.085Z,87.53
2018-09-06T08:51:57.784Z,87.09
2018-09-06T08:54:26.988Z,87.17
2018-09-06T08:56:55.681Z,87.21
2018-09-06T08:59:24.230Z,86.43
2018-09-06T09:01:52.963Z,86.62
2018-09-06T09:04:21.994Z,87.01
2018-09-06T09:06:50.602Z,87.09
2018-09-06T09:09:20.246Z,87.55
2018-09-06T09:11:54.311Z,87.57
2018-09-06T09:14:23.121Z,86.87
2018-09-06T09:16:51.802Z,86.94
2018-09-06T09:19:20.498Z,86.42
2018-09-06T09:21:49.172Z,86.77
2018-09-06T09:24:17.776Z,86.66
2018-09-06T09:26:46.311Z,86.63
2018-09-06T09:29:15.007Z,86.37
2018-09-06T09:31:43.554Z,86.58
2018-09-06T09:34:12.201Z,86.50
2018-09-06T09:36:40.832Z,86.52
2018-09-06T09:39:10.349Z,86.39
2018-09-06T09:41:39.614Z,86.15
2018-09-06T09:44:08.845Z,85.96
2018-09-06T09:49:05.144Z,85.67
2018-09-06T09:51:33.841Z,85.51
2018-09-06T09:54:02.608Z,85.54
2018-09-06T09:56:31.125Z,86.22
2018-09-06T09:58:59.632Z,85.95
2018-09-06T10:01:33.374Z,85.46
2018-09-06T10:04:07.343Z,85.33
2018-09-06T10:06:41.120Z,85.38
2018-09-06T10:09:16.164Z,85.26
2018-09-06T10:11:44.811Z,85.40
2018-09-06T10:14:14.628Z,84.69
2018-09-06T10:16:43.335Z,84.73
2018-09-06T10:19:11.914Z,85.14
2018-09-06T10:21:41.967Z,84.33
2018-09-06T10:24:11.233Z,84.34
2018-09-06T10:26:40.532Z,84.86
2018-09-06T10:29:09.479Z,85.15
2018-09-06T10:31:38.212Z,85.06
2018-09-06T10:34:12.965Z,84.85
2018-09-06T10:36:41.491Z,84.19
2018-09-06T10:39:10.920Z,84.71
2018-09-06T10:41:39.702Z,84.05
2018-09-06T10:44:08.412Z,84.36
2018-09-06T10:46:37.208Z,84.32
2018-09-06T10:49:07.183Z,84.25
2018-09-06T10:51:36.718Z,84.70
2018-09-06T10:54:05.397Z,84.38
2018-09-06T10:56:34.029Z,83.63
2018-09-06T10:59:02.545Z,83.57
2018-09-06T11:01:31.090Z,83.07
2018-09-06T11:03:59.797Z,82.98
2018-09-06T11:06:28.303Z,82.32
2018-09-06T11:08:56.882Z,82.00
2018-09-06T11:11:25.384Z,82.94
2018-09-06T11:13:54.314Z,81.77
2018-09-06T11:16:23.278Z,80.76
2018-09-06T11:18:52.083Z,79.99
2018-09-06T11:21:21.387Z,79.12
2018-09-06T11:23:50.005Z,79.79
2018-09-06T11:26:18.959Z,79.90
2018-09-06T11:28:47.639Z,78.79
2018-09-06T11:31:16.785Z,78.45
2018-09-06T11:33:45.275Z,78.66
2018-09-06T11:36:14.148Z,78.15
2018-09-06T11:38:42.873Z,78.29
2018-09-06T11:41:11.439Z,77.33
2018-09-06T11:43:39.981Z,75.72
2018-09-06T11:46:08.815Z,76.03
2018-09-06T11:48:37.402Z,75.94
2018-09-06T11:51:12.797Z,77.08
2018-09-06T11:53:41.545Z,76.72
2018-09-06T11:56:10.277Z,77.56
2018-09-06T11:58:38.971Z,78.47
2018-09-06T12:01:08.101Z,77.03
2018-09-06T12:03:36.908Z,77.03
2018-09-06T12:06:05.499Z,76.08
2018-09-06T12:08:34.003Z,76.19
2018-09-06T12:11:02.940Z,76.18
2018-09-06T12:13:32.156Z,75.02
2018-09-06T12:16:00.645Z,75.22
2018-09-06T12:18:29.523Z,74.72
2018-09-06T12:20:58.081Z,73.87
2018-09-06T12:23:26.836Z,74.50
2018-09-06T12:25:55.823Z,73.97
2018-09-06T12:28:24.780Z,74.36
2018-09-06T12:30:53.558Z,74.43
2018-09-06T12:33:23.469Z,73.36
2018-09-06T12:35:52.207Z,73.77
2018-09-06T12:38:20.948Z,74.32
2018-09-06T12:40:49.542Z,73.94
2018-09-06T12:43:18.190Z,71.85
2018-09-06T12:45:46.843Z,71.71
2018-09-06T12:48:15.838Z,71.58
2018-09-06T12:50:45.194Z,70.46
2018-09-06T12:53:13.713Z,70.05
2018-09-06T12:55:42.466Z,69.32
2018-09-06T12:58:11.061Z,69.58
2018-09-06T13:00:40.397Z,69.25
2018-09-06T13:03:08.932Z,67.72
2018-09-06T13:05:37.453Z,66.84
2018-09-06T13:08:06.017Z,66.89
2018-09-06T13:10:34.550Z,66.08
2018-09-06T13:13:03.199Z,65.42
2018-09-06T13:15:31.876Z,64.00
2018-09-06T13:18:00.472Z,64.74
2018-09-06T13:20:29.089Z,63.73
2018-09-06T13:22:57.604Z,64.03
2018-09-06T13:25:26.348Z,65.25
2018-09-06T13:27:54.884Z,66.45
2018-09-06T13:30:23.507Z,67.18
2018-09-06T13:32:52.192Z,67.08
2018-09-06T13:35:20.948Z,67.59
2018-09-06T13:37:49.430Z,66.80
2018-09-06T13:40:18.059Z,67.67
2018-09-06T13:42:46.715Z,68.33
2018-09-06T13:45:15.671Z,69.67
2018-09-06T13:47:44.264Z,69.24
2018-09-06T13:50:12.748Z,69.46
2018-09-06T13:52:41.273Z,70.16
2018-09-06T13:55:09.798Z,70.41
2018-09-06T13:57:38.443Z,69.42
2018-09-06T14:00:07.882Z,69.21
2018-09-06T14:02:36.408Z,69.42
2018-09-06T14:05:04.924Z,68.35
2018-09-06T14:07:33.785Z,64.78
2018-09-06T14:10:02.317Z,65.27
2018-09-06T14:12:30.993Z,64.95
2018-09-06T14:14:59.585Z,64.14
2018-09-06T14:17:28.308Z,64.89
2018-09-06T14:19:56.922Z,64.92
2018-09-06T14:22:26.021Z,65.94
2018-09-06T14:24:54.700Z,65.79
2018-09-06T14:27:23.221Z,65.50
2018-09-06T14:29:51.742Z,65.09
2018-09-06T14:32:21.596Z,65.82
2018-09-06T14:34:50.176Z,66.00
2018-09-06T14:37:18.990Z,64.96
2018-09-06T14:39:47.520Z,64.96
2018-09-06T14:42:22.735Z,65.88
2018-09-06T14:44:52.086Z,66.21
2018-09-06T14:47:20.806Z,66.46
2018-09-06T14:49:49.978Z,66.41
2018-09-06T14:52:18.585Z,66.65
2018-09-06T14:54:47.328Z,67.23
2018-09-06T14:57:16.075Z,65.67
2018-09-06T14:59:44.611Z,62.08
2018-09-06T15:02:13.221Z,59.70
2018-09-06T15:04:41.829Z,59.05
2018-09-06T15:07:10.313Z,59.14
2018-09-06T15:09:39.877Z,59.47
2018-09-06T15:12:08.640Z,61.39
2018-09-06T15:14:37.406Z,62.75
2018-09-06T15:17:06.124Z,63.37
2018-09-06T15:19:35.100Z,63.94
2018-09-06T15:22:03.727Z,64.36
2018-09-06T15:24:32.651Z,65.29
2018-09-06T15:27:01.563Z,65.52
2018-09-06T15:29:30.311Z,64.91
2018-09-06T15:31:58.825Z,66.10
2018-09-06T15:34:27.751Z,65.56
2018-09-06T15:36:56.441Z,65.32
2018-09-06T15:39:25.169Z,65.44
2018-09-06T15:41:53.901Z,66.71
2018-09-06T15:44:22.537Z,66.70
2018-09-06T15:46:51.460Z,67.13
2018-09-06T15:49:20.169Z,67.21
2018-09-06T15:51:48.705Z,68.13
2018-09-06T15:54:17.253Z,69.25
2018-09-06T15:56:46.484Z,68.87
2018-09-06T15:59:15.326Z,68.83
2018-09-06T16:01:44.771Z,69.30
2018-09-06T16:04:13.265Z,69.24
2018-09-06T16:06:41.781Z,69.45
2018-09-06T16:09:10.747Z,69.02
2018-09-06T16:11:39.498Z,68.91
2018-09-06T16:14:14.657Z,69.60
2018-09-06T16:16:43.543Z,69.97
2018-09-06T16:19:12.054Z,71.20
2018-09-06T16:41:51.997Z,69.30
2018-09-06T16:44:20.464Z,67.99
2018-09-06T16:46:49.016Z,68.02
2018-09-06T16:49:17.700Z,68.76
2018-09-06T16:51:46.201Z,67.91
2018-09-06T16:54:15.169Z,67.10
2018-09-06T16:56:43.845Z,66.88
2018-09-06T16:59:12.576Z,65.50
2018-09-06T17:01:41.513Z,66.11
2018-09-06T17:04:10.015Z,65.53
2018-09-06T17:06:38.618Z,66.10
2018-09-06T17:09:08.868Z,66.19
2018-09-06T17:11:37.630Z,66.38
2018-09-06T17:14:12.895Z,65.71
2018-09-06T17:16:41.507Z,66.91
2018-09-06T17:19:10.345Z,66.44
2018-09-06T17:21:39.201Z,67.39
2018-09-06T17:24:07.879Z,67.25
2018-09-06T17:26:36.524Z,67.65
2018-09-06T17:29:05.060Z,68.13
2018-09-06T17:31:33.589Z,68.65
2018-09-06T17:34:02.047Z,68.79
2018-09-06T17:36:30.662Z,69.34
2018-09-06T17:38:59.549Z,70.07
2018-09-06T17:41:28.000Z,70.40
2018-09-06T17:43:56.854Z,70.47
2018-09-06T17:46:25.573Z,70.21
2018-09-06T17:48:54.054Z,70.20
2018-09-06T17:51:22.743Z,71.25
2018-09-06T17:53:56.450Z,70.51
2018-09-06T17:56:27.853Z,70.72
2018-09-06T17:58:56.654Z,70.70
2018-09-06T18:01:32.637Z,71.81
2018-09-06T18:04:01.474Z,71.95
2018-09-06T18:06:30.168Z,72.32
2018-09-06T18:08:58.772Z,72.26
2018-09-06T18:11:27.858Z,72.92
2018-09-06T18:13:56.872Z,72.46
2018-09-06T18:16:25.339Z,72.80
2018-09-06T18:18:54.749Z,72.30
2018-09-06T18:21:24.290Z,72.36
2018-09-06T18:23:53.557Z,72.67
2018-09-06T18:26:22.645Z,72.81
2018-09-06T18:28:51.411Z,72.90
2018-09-06T18:31:20.410Z,73.20
2018-09-06T18:33:49.120Z,73.27
2018-09-06T18:36:18.459Z,72.63
2018-09-06T18:38:47.845Z,73.29
2018-09-06T18:41:18.081Z,72.85
2018-09-06T18:43:46.988Z,73.57
2018-09-06T18:46:16.033Z,73.74
2018-09-06T18:48:45.731Z,73.23
2018-09-06T18:51:14.747Z,73.51
2018-09-06T18:53:43.941Z,73.33
2018-09-06T18:56:12.575Z,73.23
2018-09-06T18:58:41.372Z,74.19
2018-09-06T19:01:09.954Z,74.31
2018-09-06T19:03:39.158Z,74.54
2018-09-06T19:06:08.137Z,75.02
2018-09-06T19:08:37.076Z,74.70
2018-09-06T19:11:07.927Z,74.60
2018-09-06T19:13:36.566Z,74.76
2018-09-06T19:16:05.168Z,74.64
2018-09-06T19:18:34.080Z,75.48
2018-09-06T19:21:02.650Z,75.91
2018-09-06T19:23:31.167Z,75.26
2018-09-06T19:25:59.857Z,75.94
2018-09-06T19:28:28.619Z,75.87
2018-09-06T19:30:57.194Z,75.92
2018-09-06T19:33:25.799Z,75.16
2018-09-06T19:35:54.735Z,76.09
2018-09-06T19:38:23.264Z,76.57
2018-09-06T19:40:51.988Z,76.21
2018-09-06T19:43:20.514Z,76.20
2018-09-06T19:45:49.115Z,76.41
2018-09-06T19:48:17.828Z,77.12
2018-09-06T19:50:46.628Z,76.75
2018-09-06T19:53:15.311Z,77.93
2018-09-06T19:55:44.671Z,77.12
2018-09-06T19:58:13.289Z,77.11
2018-09-06T20:00:42.481Z,78.43
2018-09-06T20:03:11.333Z,78.08
2018-09-06T20:05:40.420Z,78.06
2018-09-06T20:08:09.460Z,78.42
2018-09-06T20:10:38.356Z,78.49
2018-09-06T20:13:07.251Z,79.23
2018-09-06T20:15:36.080Z,79.37
2018-09-06T20:18:05.664Z,79.96
2018-09-06T20:20:34.375Z,79.42
2018-09-06T20:23:03.449Z,79.19
2018-09-06T20:25:32.284Z,79.87
2018-09-06T20:28:01.617Z,79.19
2018-09-06T20:30:30.278Z,79.29
2018-09-06T20:32:58.783Z,79.19
2018-09-06T20:35:27.376Z,79.09
2018-09-06T20:37:56.060Z,78.92
2018-09-06T20:40:24.904Z,79.24
2018-09-06T20:42:53.557Z,79.92
2018-09-06T20:45:22.233Z,79.44
2018-09-06T20:47:51.105Z,80.14
2018-09-06T20:50:19.768Z,79.93
2018-09-06T20:52:48.601Z,80.21
2018-09-06T20:55:17.990Z,80.16
2018-09-06T20:57:46.552Z,79.87
2018-09-06T21:00:15.334Z,80.48
2018-09-06T21:02:43.923Z,80.20
2018-09-06T21:05:12.694Z,81.07
2018-09-06T21:07:41.321Z,80.54
2018-09-06T21:10:10.025Z,80.66
2018-09-06T21:12:38.562Z,79.80
2018-09-06T21:15:07.143Z,80.71
2018-09-06T21:17:35.660Z,80.29
2018-09-06T21:20:04.482Z,80.58
2018-09-06T21:22:33.148Z,80.33
2018-09-06T21:25:02.043Z,80.44
2018-09-06T21:27:30.839Z,80.17
2018-09-06T21:29:59.404Z,80.50
2018-09-06T21:32:27.895Z,80.35
2018-09-06T21:34:56.409Z,80.68
2018-09-06T21:37:24.865Z,80.77
2018-09-06T21:39:53.642Z,81.16
2018-09-06T21:42:22.287Z,81.45
2018-09-06T21:44:50.838Z,80.94
2018-09-06T21:47:19.434Z,80.57
2018-09-06T21:49:47.903Z,80.32
2018-09-06T21:52:16.967Z,80.53
2018-09-06T21:54:45.657Z,79.53
2018-09-06T21:57:14.303Z,80.78
2018-09-06T21:59:42.926Z,80.88
2018-09-06T22:02:16.672Z,80.21
2018-09-06T22:04:45.245Z,80.18
2018-09-06T22:07:14.366Z,79.99
2018-09-06T22:09:45.736Z,80.67
2018-09-06T22:12:16.722Z,80.37
2018-09-06T22:14:46.755Z,80.60
2018-09-06T22:17:15.398Z,81.38
2018-09-06T22:19:43.939Z,81.63
2018-09-06T22:22:12.590Z,81.48
2018-09-06T22:24:41.801Z,80.79
2018-09-06T22:27:10.464Z,80.72
2018-09-06T22:29:39.201Z,81.42
2018-09-06T22:32:07.882Z,80.75
2018-09-06T22:34:37.354Z,81.37
2018-09-06T22:37:06.147Z,81.27
2018-09-06T22:39:34.797Z,81.41
2018-09-06T22:42:03.498Z,81.53
2018-09-06T22:44:32.853Z,81.66
2018-09-06T22:47:01.333Z,81.99
2018-09-06T22:49:30.031Z,81.51
2018-09-06T22:51:58.532Z,81.44
2018-09-06T22:54:27.055Z,81.15
2018-09-06T22:56:55.829Z,81.32
2018-09-06T22:59:25.249Z,81.43
2018-09-06T23:01:53.953Z,81.30
2018-09-06T23:04:22.538Z,81.53
2018-09-06T23:06:51.249Z,82.25
2018-09-06T23:09:19.849Z,81.98
2018-09-06T23:11:49.018Z,82.20
2018-09-06T23:14:17.565Z,81.67
2018-09-06T23:16:46.022Z,81.67
2018-09-06T23:19:14.640Z,82.19
2018-09-06T23:21:43.216Z,81.64
2018-09-06T23:24:11.815Z,82.02
2018-09-06T23:26:40.972Z,82.83
2018-09-06T23:29:10.217Z,81.90
2018-09-06T23:31:39.683Z,82.44
2018-09-06T23:34:08.375Z,81.63
2018-09-06T23:36:36.884Z,81.56
2018-09-06T23:39:07.436Z,81.67
2018-09-06T23:41:36.071Z,82.09
2018-09-06T23:44:04.845Z,82.06
2018-09-06T23:46:33.325Z,82.31
2018-09-06T23:49:02.051Z,81.94
2018-09-06T23:51:30.555Z,82.34
2018-09-06T23:53:59.777Z,82.52
2018-09-06T23:56:29.090Z,82.88
2018-09-06T23:58:57.621Z,83.41
